sensor_id;sensor_type;location;lat;lon;timestamp;P1;durP1;ratioP1;P2;durP2;ratioP2
43216;SDS011;60511;42.686;23.300;2023-04-01T00:00:26;5.03;;;3.78;;
43216;SDS011;60511;42.686;23.300;2023-04-01T00:02:27;5.25;;;4.00;;
43216;SDS011;60511;42.686;23.300;2023-04-01T00:04:27;5.60;;;3.80;;
43216;SDS011;60511;42.686;23.300;2023-04-01T00:06:27;4.40;;;3.50;;
43216;SDS011;60511;42.686;23.300;2023-04-01T00:08:28;4.57;;;4.03;;
43216;SDS011;60511;42.686;23.300;2023-04-01T00:10:29;3.92;;;3.50;;
43216;SDS011;60511;42.686;23.300;2023-04-01T00:12:30;4.28;;;3.53;;
43216;SDS011;60511;42.686;23.300;2023-04-01T00:14:30;4.40;;;4.00;;
43216;SDS011;60511;42.686;23.300;2023-04-01T00:16:30;5.55;;;4.40;;
43216;SDS011;60511;42.686;23.300;2023-04-01T00:18:31;4.15;;;3.22;;
43216;SDS011;60511;42.686;23.300;2023-04-01T00:20:31;4.68;;;3.95;;
43216;SDS011;60511;42.686;23.300;2023-04-01T00:22:32;3.83;;;3.50;;
43216;SDS011;60511;42.686;23.300;2023-04-01T00:24:33;4.65;;;3.83;;
43216;SDS011;60511;42.686;23.300;2023-04-01T00:26:34;6.20;;;3.85;;
43216;SDS011;60511;42.686;23.300;2023-04-01T00:28:34;5.10;;;4.00;;
43216;SDS011;60511;42.686;23.300;2023-04-01T00:30:36;5.55;;;3.90;;
43216;SDS011;60511;42.686;23.300;2023-04-01T00:32:37;5.38;;;4.03;;
43216;SDS011;60511;42.686;23.300;2023-04-01T00:34:37;4.93;;;3.92;;
43216;SDS011;60511;42.686;23.300;2023-04-01T00:36:39;5.13;;;4.05;;
43216;SDS011;60511;42.686;23.300;2023-04-01T00:38:40;4.15;;;3.67;;
43216;SDS011;60511;42.686;23.300;2023-04-01T00:40:43;5.63;;;4.07;;
43216;SDS011;60511;42.686;23.300;2023-04-01T00:44:53;5.28;;;3.80;;
43216;SDS011;60511;42.686;23.300;2023-04-01T00:46:55;5.53;;;4.60;;
43216;SDS011;60511;42.686;23.300;2023-04-01T00:48:56;5.57;;;4.25;;
43216;SDS011;60511;42.686;23.300;2023-04-01T00:51:01;4.90;;;4.43;;
43216;SDS011;60511;42.686;23.300;2023-04-01T00:53:05;5.22;;;4.18;;
43216;SDS011;60511;42.686;23.300;2023-04-01T00:55:07;4.50;;;3.88;;
43216;SDS011;60511;42.686;23.300;2023-04-01T00:59:40;6.00;;;4.43;;
43216;SDS011;60511;42.686;23.300;2023-04-01T01:01:49;4.45;;;4.03;;
43216;SDS011;60511;42.686;23.300;2023-04-01T01:03:51;4.30;;;3.90;;
43216;SDS011;60511;42.686;23.300;2023-04-01T01:06:08;5.15;;;4.47;;
43216;SDS011;60511;42.686;23.300;2023-04-01T01:08:31;4.20;;;3.80;;
43216;SDS011;60511;42.686;23.300;2023-04-01T01:10:48;5.22;;;4.28;;
43216;SDS011;60511;42.686;23.300;2023-04-01T01:15:32;5.10;;;4.57;;
43216;SDS011;60511;42.686;23.300;2023-04-01T01:22:10;5.22;;;4.40;;
43216;SDS011;60511;42.686;23.300;2023-04-01T01:26:51;4.50;;;4.10;;
43216;SDS011;60511;42.686;23.300;2023-04-01T01:31:43;4.68;;;4.22;;
43216;SDS011;60511;42.686;23.300;2023-04-01T01:35:56;5.70;;;4.57;;
43216;SDS011;60511;42.686;23.300;2023-04-01T01:38:00;6.35;;;4.70;;
43216;SDS011;60511;42.686;23.300;2023-04-01T01:40:05;5.55;;;4.50;;
43216;SDS011;60511;42.686;23.300;2023-04-01T01:42:07;5.95;;;4.70;;
43216;SDS011;60511;42.686;23.300;2023-04-01T01:44:11;4.75;;;3.92;;
43216;SDS011;60511;42.686;23.300;2023-04-01T01:46:15;4.90;;;4.25;;
43216;SDS011;60511;42.686;23.300;2023-04-01T01:48:19;5.35;;;4.63;;
43216;SDS011;60511;42.686;23.300;2023-04-01T01:50:20;5.07;;;4.55;;
43216;SDS011;60511;42.686;23.300;2023-04-01T01:52:23;6.72;;;4.88;;
43216;SDS011;60511;42.686;23.300;2023-04-01T01:54:24;7.03;;;4.95;;
43216;SDS011;60511;42.686;23.300;2023-04-01T01:56:25;6.25;;;4.43;;
43216;SDS011;60511;42.686;23.300;2023-04-01T01:58:29;5.45;;;4.80;;
43216;SDS011;60511;42.686;23.300;2023-04-01T02:00:34;4.45;;;4.03;;
43216;SDS011;60511;42.686;23.300;2023-04-01T02:02:36;5.90;;;5.00;;
43216;SDS011;60511;42.686;23.300;2023-04-01T02:04:39;5.32;;;4.07;;
43216;SDS011;60511;42.686;23.300;2023-04-01T02:06:44;4.78;;;4.22;;
43216;SDS011;60511;42.686;23.300;2023-04-01T02:08:57;4.65;;;4.13;;
43216;SDS011;60511;42.686;23.300;2023-04-01T02:11:11;5.32;;;4.82;;
43216;SDS011;60511;42.686;23.300;2023-04-01T02:15:18;6.10;;;4.82;;
43216;SDS011;60511;42.686;23.300;2023-04-01T02:17:22;5.15;;;4.65;;
43216;SDS011;60511;42.686;23.300;2023-04-01T02:19:25;4.80;;;4.40;;
43216;SDS011;60511;42.686;23.300;2023-04-01T02:21:31;5.57;;;4.57;;
43216;SDS011;60511;42.686;23.300;2023-04-01T02:23:35;5.57;;;5.07;;
43216;SDS011;60511;42.686;23.300;2023-04-01T02:25:37;5.20;;;4.70;;
43216;SDS011;60511;42.686;23.300;2023-04-01T02:27:40;5.28;;;4.20;;
43216;SDS011;60511;42.686;23.300;2023-04-01T02:29:44;4.85;;;4.13;;
43216;SDS011;60511;42.686;23.300;2023-04-01T02:31:45;5.00;;;4.50;;
43216;SDS011;60511;42.686;23.300;2023-04-01T02:33:46;4.82;;;4.35;;
43216;SDS011;60511;42.686;23.300;2023-04-01T02:35:47;4.45;;;3.97;;
43216;SDS011;60511;42.686;23.300;2023-04-01T02:37:48;6.15;;;4.80;;
43216;SDS011;60511;42.686;23.300;2023-04-01T02:39:50;5.50;;;4.43;;
43216;SDS011;60511;42.686;23.300;2023-04-01T02:41:50;5.07;;;4.35;;
43216;SDS011;60511;42.686;23.300;2023-04-01T02:43:52;5.15;;;4.68;;
43216;SDS011;60511;42.686;23.300;2023-04-01T02:45:52;4.75;;;4.25;;
43216;SDS011;60511;42.686;23.300;2023-04-01T02:47:53;5.95;;;5.13;;
43216;SDS011;60511;42.686;23.300;2023-04-01T02:49:53;5.90;;;4.30;;
43216;SDS011;60511;42.686;23.300;2023-04-01T02:51:58;5.45;;;4.95;;
43216;SDS011;60511;42.686;23.300;2023-04-01T02:53:58;4.63;;;4.20;;
43216;SDS011;60511;42.686;23.300;2023-04-01T02:55:59;7.15;;;5.05;;
43216;SDS011;60511;42.686;23.300;2023-04-01T02:57:59;5.50;;;4.57;;
43216;SDS011;60511;42.686;23.300;2023-04-01T03:00:00;4.60;;;4.20;;
43216;SDS011;60511;42.686;23.300;2023-04-01T03:02:00;4.90;;;4.40;;
43216;SDS011;60511;42.686;23.300;2023-04-01T03:04:01;5.50;;;4.85;;
43216;SDS011;60511;42.686;23.300;2023-04-01T03:06:08;5.82;;;4.53;;
43216;SDS011;60511;42.686;23.300;2023-04-01T03:08:10;4.88;;;4.47;;
43216;SDS011;60511;42.686;23.300;2023-04-01T03:10:11;5.88;;;5.25;;
43216;SDS011;60511;42.686;23.300;2023-04-01T03:12:12;4.82;;;4.20;;
43216;SDS011;60511;42.686;23.300;2023-04-01T03:14:12;5.57;;;4.40;;
43216;SDS011;60511;42.686;23.300;2023-04-01T03:16:13;6.65;;;5.30;;
43216;SDS011;60511;42.686;23.300;2023-04-01T03:18:13;4.53;;;4.13;;
43216;SDS011;60511;42.686;23.300;2023-04-01T03:20:14;6.32;;;4.50;;
43216;SDS011;60511;42.686;23.300;2023-04-01T03:22:16;5.03;;;4.55;;
43216;SDS011;60511;42.686;23.300;2023-04-01T03:24:16;5.43;;;4.68;;
43216;SDS011;60511;42.686;23.300;2023-04-01T03:26:16;4.57;;;4.18;;
43216;SDS011;60511;42.686;23.300;2023-04-01T03:28:18;6.65;;;5.45;;
43216;SDS011;60511;42.686;23.300;2023-04-01T03:30:18;5.50;;;4.45;;
43216;SDS011;60511;42.686;23.300;2023-04-01T03:32:18;4.50;;;4.07;;
43216;SDS011;60511;42.686;23.300;2023-04-01T03:34:19;5.07;;;4.18;;
43216;SDS011;60511;42.686;23.300;2023-04-01T03:36:19;4.90;;;4.20;;
43216;SDS011;60511;42.686;23.300;2023-04-01T03:38:20;5.45;;;4.30;;
43216;SDS011;60511;42.686;23.300;2023-04-01T03:40:20;5.38;;;4.30;;
43216;SDS011;60511;42.686;23.300;2023-04-01T03:42:21;6.60;;;4.63;;
43216;SDS011;60511;42.686;23.300;2023-04-01T03:44:21;4.97;;;4.35;;
43216;SDS011;60511;42.686;23.300;2023-04-01T03:46:22;4.53;;;4.13;;
43216;SDS011;60511;42.686;23.300;2023-04-01T03:48:22;5.10;;;4.45;;
43216;SDS011;60511;42.686;23.300;2023-04-01T03:50:24;4.78;;;4.35;;
43216;SDS011;60511;42.686;23.300;2023-04-01T03:52:24;5.30;;;4.55;;
43216;SDS011;60511;42.686;23.300;2023-04-01T03:54:25;4.88;;;4.38;;
43216;SDS011;60511;42.686;23.300;2023-04-01T03:56:25;4.90;;;4.40;;
43216;SDS011;60511;42.686;23.300;2023-04-01T03:58:26;5.30;;;4.63;;
43216;SDS011;60511;42.686;23.300;2023-04-01T04:00:26;5.10;;;4.60;;
43216;SDS011;60511;42.686;23.300;2023-04-01T04:02:27;4.88;;;4.07;;
43216;SDS011;60511;42.686;23.300;2023-04-01T04:04:27;4.90;;;4.38;;
43216;SDS011;60511;42.686;23.300;2023-04-01T04:06:28;5.75;;;4.50;;
43216;SDS011;60511;42.686;23.300;2023-04-01T04:08:28;6.43;;;4.72;;
43216;SDS011;60511;42.686;23.300;2023-04-01T04:10:29;4.63;;;4.13;;
43216;SDS011;60511;42.686;23.300;2023-04-01T04:12:29;5.32;;;4.60;;
43216;SDS011;60511;42.686;23.300;2023-04-01T04:14:30;5.05;;;4.18;;
43216;SDS011;60511;42.686;23.300;2023-04-01T04:16:31;4.38;;;3.70;;
43216;SDS011;60511;42.686;23.300;2023-04-01T04:18:34;6.40;;;5.00;;
43216;SDS011;60511;42.686;23.300;2023-04-01T04:20:35;5.10;;;4.70;;
43216;SDS011;60511;42.686;23.300;2023-04-01T04:22:36;5.13;;;4.47;;
43216;SDS011;60511;42.686;23.300;2023-04-01T04:24:36;4.93;;;4.43;;
43216;SDS011;60511;42.686;23.300;2023-04-01T04:26:37;4.68;;;4.28;;
43216;SDS011;60511;42.686;23.300;2023-04-01T04:28:37;4.88;;;4.40;;
43216;SDS011;60511;42.686;23.300;2023-04-01T04:30:38;4.72;;;4.22;;
43216;SDS011;60511;42.686;23.300;2023-04-01T04:32:38;5.70;;;4.13;;
43216;SDS011;60511;42.686;23.300;2023-04-01T04:34:38;5.22;;;3.97;;
43216;SDS011;60511;42.686;23.300;2023-04-01T04:36:39;5.90;;;4.53;;
43216;SDS011;60511;42.686;23.300;2023-04-01T04:38:39;6.00;;;4.57;;
43216;SDS011;60511;42.686;23.300;2023-04-01T04:40:40;5.18;;;4.22;;
43216;SDS011;60511;42.686;23.300;2023-04-01T04:42:42;5.38;;;4.28;;
43216;SDS011;60511;42.686;23.300;2023-04-01T04:44:42;5.13;;;4.28;;
43216;SDS011;60511;42.686;23.300;2023-04-01T04:46:43;4.43;;;4.03;;
43216;SDS011;60511;42.686;23.300;2023-04-01T04:48:45;5.35;;;4.72;;
43216;SDS011;60511;42.686;23.300;2023-04-01T04:50:49;5.13;;;4.63;;
43216;SDS011;60511;42.686;23.300;2023-04-01T04:52:50;4.88;;;4.38;;
43216;SDS011;60511;42.686;23.300;2023-04-01T04:54:51;4.90;;;4.03;;
43216;SDS011;60511;42.686;23.300;2023-04-01T04:56:52;4.88;;;4.35;;
43216;SDS011;60511;42.686;23.300;2023-04-01T04:58:53;4.80;;;4.38;;
43216;SDS011;60511;42.686;23.300;2023-04-01T05:00:53;5.65;;;4.30;;
43216;SDS011;60511;42.686;23.300;2023-04-01T05:02:54;4.85;;;4.18;;
43216;SDS011;60511;42.686;23.300;2023-04-01T05:04:54;5.35;;;3.92;;
43216;SDS011;60511;42.686;23.300;2023-04-01T05:06:55;6.07;;;4.28;;
43216;SDS011;60511;42.686;23.300;2023-04-01T05:08:55;4.85;;;4.43;;
43216;SDS011;60511;42.686;23.300;2023-04-01T05:10:56;5.20;;;4.68;;
43216;SDS011;60511;42.686;23.300;2023-04-01T05:12:57;4.80;;;4.30;;
43216;SDS011;60511;42.686;23.300;2023-04-01T05:14:58;4.70;;;4.20;;
43216;SDS011;60511;42.686;23.300;2023-04-01T05:16:58;5.32;;;4.82;;
43216;SDS011;60511;42.686;23.300;2023-04-01T05:18:59;5.45;;;3.95;;
43216;SDS011;60511;42.686;23.300;2023-04-01T05:20:59;5.32;;;4.45;;
43216;SDS011;60511;42.686;23.300;2023-04-01T05:22:59;5.10;;;4.60;;
43216;SDS011;60511;42.686;23.300;2023-04-01T05:25:00;4.82;;;4.28;;
43216;SDS011;60511;42.686;23.300;2023-04-01T05:27:01;4.95;;;4.32;;
43216;SDS011;60511;42.686;23.300;2023-04-01T05:29:02;4.93;;;4.40;;
43216;SDS011;60511;42.686;23.300;2023-04-01T05:31:04;4.20;;;3.80;;
43216;SDS011;60511;42.686;23.300;2023-04-01T05:33:05;4.72;;;4.32;;
43216;SDS011;60511;42.686;23.300;2023-04-01T05:35:06;5.18;;;4.63;;
43216;SDS011;60511;42.686;23.300;2023-04-01T05:37:06;4.68;;;4.25;;
43216;SDS011;60511;42.686;23.300;2023-04-01T05:39:07;4.70;;;4.20;;
43216;SDS011;60511;42.686;23.300;2023-04-01T05:41:07;5.13;;;4.05;;
43216;SDS011;60511;42.686;23.300;2023-04-01T05:43:08;4.40;;;4.00;;
43216;SDS011;60511;42.686;23.300;2023-04-01T05:45:08;4.40;;;3.83;;
43216;SDS011;60511;42.686;23.300;2023-04-01T05:47:09;4.75;;;4.13;;
43216;SDS011;60511;42.686;23.300;2023-04-01T05:49:09;5.82;;;4.82;;
43216;SDS011;60511;42.686;23.300;2023-04-01T05:51:13;4.68;;;4.18;;
43216;SDS011;60511;42.686;23.300;2023-04-01T05:53:15;4.28;;;3.88;;
43216;SDS011;60511;42.686;23.300;2023-04-01T05:55:15;4.60;;;4.03;;
43216;SDS011;60511;42.686;23.300;2023-04-01T05:57:16;4.40;;;4.00;;
43216;SDS011;60511;42.686;23.300;2023-04-01T05:59:16;5.10;;;3.92;;
43216;SDS011;60511;42.686;23.300;2023-04-01T06:01:17;5.78;;;4.85;;
43216;SDS011;60511;42.686;23.300;2023-04-01T06:03:19;4.78;;;4.00;;
43216;SDS011;60511;42.686;23.300;2023-04-01T06:05:24;4.22;;;3.55;;
43216;SDS011;60511;42.686;23.300;2023-04-01T06:07:25;4.93;;;3.58;;
43216;SDS011;60511;42.686;23.300;2023-04-01T06:09:28;5.13;;;4.57;;
43216;SDS011;60511;42.686;23.300;2023-04-01T06:11:43;5.47;;;4.07;;
43216;SDS011;60511;42.686;23.300;2023-04-01T06:29:53;4.10;;;3.70;;
43216;SDS011;60511;42.686;23.300;2023-04-01T06:32:05;4.55;;;3.92;;
43216;SDS011;60511;42.686;23.300;2023-04-01T06:34:55;4.30;;;3.90;;
43216;SDS011;60511;42.686;23.300;2023-04-01T06:36:44;4.55;;;4.15;;
43216;SDS011;60511;42.686;23.300;2023-04-01T06:39:11;4.45;;;4.07;;
43216;SDS011;60511;42.686;23.300;2023-04-01T06:54:53;4.35;;;3.95;;
43216;SDS011;60511;42.686;23.300;2023-04-01T06:57:03;4.38;;;3.67;;
43216;SDS011;60511;42.686;23.300;2023-04-01T06:59:22;4.85;;;3.65;;
43216;SDS011;60511;42.686;23.300;2023-04-01T07:03:41;4.35;;;3.88;;
43216;SDS011;60511;42.686;23.300;2023-04-01T07:05:47;4.15;;;3.42;;
43216;SDS011;60511;42.686;23.300;2023-04-01T07:07:52;3.20;;;2.97;;
43216;SDS011;60511;42.686;23.300;2023-04-01T07:09:57;5.03;;;3.78;;
43216;SDS011;60511;42.686;23.300;2023-04-01T07:12:02;4.20;;;3.47;;
43216;SDS011;60511;42.686;23.300;2023-04-01T07:14:21;3.45;;;3.15;;
43216;SDS011;60511;42.686;23.300;2023-04-01T07:20:56;4.20;;;3.65;;
43216;SDS011;60511;42.686;23.300;2023-04-01T07:23:02;4.88;;;3.83;;
43216;SDS011;60511;42.686;23.300;2023-04-01T07:25:13;3.72;;;3.42;;
43216;SDS011;60511;42.686;23.300;2023-04-01T07:27:16;4.38;;;3.78;;
43216;SDS011;60511;42.686;23.300;2023-04-01T07:29:16;4.00;;;3.55;;
43216;SDS011;60511;42.686;23.300;2023-04-01T07:31:38;4.90;;;3.83;;
43216;SDS011;60511;42.686;23.300;2023-04-01T07:38:54;5.13;;;4.07;;
43216;SDS011;60511;42.686;23.300;2023-04-01T07:41:59;4.75;;;3.83;;
43216;SDS011;60511;42.686;23.300;2023-04-01T07:43:35;3.38;;;3.08;;
43216;SDS011;60511;42.686;23.300;2023-04-01T07:46:07;3.95;;;3.45;;
43216;SDS011;60511;42.686;23.300;2023-04-01T07:48:28;4.78;;;3.60;;
43216;SDS011;60511;42.686;23.300;2023-04-01T07:50:41;3.90;;;3.50;;
43216;SDS011;60511;42.686;23.300;2023-04-01T07:53:04;5.60;;;3.63;;
43216;SDS011;60511;42.686;23.300;2023-04-01T07:55:54;3.70;;;3.40;;
43216;SDS011;60511;42.686;23.300;2023-04-01T07:57:50;3.92;;;3.55;;
43216;SDS011;60511;42.686;23.300;2023-04-01T08:04:35;4.32;;;3.70;;
43216;SDS011;60511;42.686;23.300;2023-04-01T08:13:38;5.13;;;3.50;;
43216;SDS011;60511;42.686;23.300;2023-04-01T08:23:11;4.75;;;3.88;;
43216;SDS011;60511;42.686;23.300;2023-04-01T08:25:25;3.75;;;3.22;;
43216;SDS011;60511;42.686;23.300;2023-04-01T08:29:41;3.85;;;3.50;;
43216;SDS011;60511;42.686;23.300;2023-04-01T08:34:24;3.95;;;3.63;;
43216;SDS011;60511;42.686;23.300;2023-04-01T08:36:29;5.88;;;4.20;;
43216;SDS011;60511;42.686;23.300;2023-04-01T08:38:54;3.85;;;3.40;;
43216;SDS011;60511;42.686;23.300;2023-04-01T08:43:55;3.55;;;3.08;;
43216;SDS011;60511;42.686;23.300;2023-04-01T08:46:19;3.70;;;3.13;;
43216;SDS011;60511;42.686;23.300;2023-04-01T08:53:26;3.45;;;3.15;;
43216;SDS011;60511;42.686;23.300;2023-04-01T08:58:06;3.45;;;3.15;;
43216;SDS011;60511;42.686;23.300;2023-04-01T09:07:20;4.18;;;3.70;;
43216;SDS011;60511;42.686;23.300;2023-04-01T09:17:27;5.25;;;3.17;;
43216;SDS011;60511;42.686;23.300;2023-04-01T09:21:37;3.72;;;3.35;;
43216;SDS011;60511;42.686;23.300;2023-04-01T09:36:21;3.15;;;2.85;;
43216;SDS011;60511;42.686;23.300;2023-04-01T09:39:11;4.30;;;3.70;;
43216;SDS011;60511;42.686;23.300;2023-04-01T09:40:56;5.30;;;4.00;;
43216;SDS011;60511;42.686;23.300;2023-04-01T09:43:28;3.42;;;2.78;;
43216;SDS011;60511;42.686;23.300;2023-04-01T09:51:20;3.55;;;2.65;;
43216;SDS011;60511;42.686;23.300;2023-04-01T09:53:41;3.40;;;2.92;;
43216;SDS011;60511;42.686;23.300;2023-04-01T10:17:25;3.42;;;3.00;;
43216;SDS011;60511;42.686;23.300;2023-04-01T10:47:19;2.83;;;2.53;;
43216;SDS011;60511;42.686;23.300;2023-04-01T10:49:43;3.38;;;2.95;;
43216;SDS011;60511;42.686;23.300;2023-04-01T10:56:34;3.85;;;3.08;;
43216;SDS011;60511;42.686;23.300;2023-04-01T10:59:36;3.30;;;3.00;;
43216;SDS011;60511;42.686;23.300;2023-04-01T11:25:46;3.15;;;2.83;;
43216;SDS011;60511;42.686;23.300;2023-04-01T11:33:01;3.53;;;3.10;;
43216;SDS011;60511;42.686;23.300;2023-04-01T12:08:21;3.08;;;2.53;;
43216;SDS011;60511;42.686;23.300;2023-04-01T12:13:04;3.45;;;2.50;;
43216;SDS011;60511;42.686;23.300;2023-04-01T12:19:50;2.80;;;2.50;;
43216;SDS011;60511;42.686;23.300;2023-04-01T12:22:02;3.55;;;3.22;;
43216;SDS011;60511;42.686;23.300;2023-04-01T12:38:31;3.78;;;3.03;;
43216;SDS011;60511;42.686;23.300;2023-04-01T12:45:17;3.13;;;2.72;;
43216;SDS011;60511;42.686;23.300;2023-04-01T12:49:43;3.35;;;2.35;;
43216;SDS011;60511;42.686;23.300;2023-04-01T13:07:57;2.83;;;2.50;;
43216;SDS011;60511;42.686;23.300;2023-04-01T13:12:35;2.45;;;2.25;;
43216;SDS011;60511;42.686;23.300;2023-04-01T13:17:20;2.65;;;2.30;;
43216;SDS011;60511;42.686;23.300;2023-04-01T13:23:44;3.28;;;2.80;;
43216;SDS011;60511;42.686;23.300;2023-04-01T13:28:25;2.28;;;2.08;;
43216;SDS011;60511;42.686;23.300;2023-04-01T13:43:22;3.78;;;2.63;;
43216;SDS011;60511;42.686;23.300;2023-04-01T13:57:14;3.88;;;2.38;;
43216;SDS011;60511;42.686;23.300;2023-04-01T14:19:56;3.35;;;2.00;;
43216;SDS011;60511;42.686;23.300;2023-04-01T14:29:07;3.28;;;2.10;;
43216;SDS011;60511;42.686;23.300;2023-04-01T14:31:50;2.47;;;2.28;;
43216;SDS011;60511;42.686;23.300;2023-04-01T14:41:34;2.38;;;2.17;;
43216;SDS011;60511;42.686;23.300;2023-04-01T14:48:49;2.15;;;1.90;;
43216;SDS011;60511;42.686;23.300;2023-04-01T14:50:56;3.40;;;2.38;;
43216;SDS011;60511;42.686;23.300;2023-04-01T14:55:29;2.50;;;2.30;;
43216;SDS011;60511;42.686;23.300;2023-04-01T14:57:33;2.15;;;1.95;;
43216;SDS011;60511;42.686;23.300;2023-04-01T14:59:34;2.10;;;1.80;;
43216;SDS011;60511;42.686;23.300;2023-04-01T15:02:00;3.92;;;2.42;;
43216;SDS011;60511;42.686;23.300;2023-04-01T15:04:24;3.20;;;2.25;;
43216;SDS011;60511;42.686;23.300;2023-04-01T15:09:20;2.45;;;2.25;;
43216;SDS011;60511;42.686;23.300;2023-04-01T15:18:41;2.78;;;2.00;;
43216;SDS011;60511;42.686;23.300;2023-04-01T15:23:01;2.15;;;1.95;;
43216;SDS011;60511;42.686;23.300;2023-04-01T15:25:23;2.78;;;2.20;;
43216;SDS011;60511;42.686;23.300;2023-04-01T15:27:58;2.13;;;2.03;;
43216;SDS011;60511;42.686;23.300;2023-04-01T15:32:21;2.13;;;1.85;;
43216;SDS011;60511;42.686;23.300;2023-04-01T15:39:17;2.30;;;2.10;;
43216;SDS011;60511;42.686;23.300;2023-04-01T15:44:03;3.22;;;1.92;;
43216;SDS011;60511;42.686;23.300;2023-04-01T15:48:54;3.17;;;2.33;;
43216;SDS011;60511;42.686;23.300;2023-04-01T15:53:31;2.28;;;1.92;;
43216;SDS011;60511;42.686;23.300;2023-04-01T16:00:40;1.80;;;1.65;;
43216;SDS011;60511;42.686;23.300;2023-04-01T16:04:50;2.33;;;1.92;;
43216;SDS011;60511;42.686;23.300;2023-04-01T16:07:16;2.58;;;1.90;;
43216;SDS011;60511;42.686;23.300;2023-04-01T16:09:43;4.28;;;2.58;;
43216;SDS011;60511;42.686;23.300;2023-04-01T16:13:59;3.10;;;1.95;;
43216;SDS011;60511;42.686;23.300;2023-04-01T16:22:59;1.92;;;1.77;;
43216;SDS011;60511;42.686;23.300;2023-04-01T16:28:09;3.83;;;2.03;;
43216;SDS011;60511;42.686;23.300;2023-04-01T16:37:29;2.42;;;1.58;;
43216;SDS011;60511;42.686;23.300;2023-04-01T16:39:44;2.95;;;2.00;;
43216;SDS011;60511;42.686;23.300;2023-04-01T16:44:20;2.20;;;2.00;;
43216;SDS011;60511;42.686;23.300;2023-04-01T16:46:33;3.17;;;1.73;;
43216;SDS011;60511;42.686;23.300;2023-04-01T16:50:58;3.03;;;1.85;;
43216;SDS011;60511;42.686;23.300;2023-04-01T16:53:13;1.70;;;1.60;;
43216;SDS011;60511;42.686;23.300;2023-04-01T16:55:21;2.10;;;1.70;;
43216;SDS011;60511;42.686;23.300;2023-04-01T17:02:17;2.60;;;1.83;;
43216;SDS011;60511;42.686;23.300;2023-04-01T17:04:30;3.53;;;1.65;;
43216;SDS011;60511;42.686;23.300;2023-04-01T17:06:40;1.67;;;1.58;;
43216;SDS011;60511;42.686;23.300;2023-04-01T17:15:12;2.03;;;1.55;;
43216;SDS011;60511;42.686;23.300;2023-04-01T17:17:24;2.45;;;2.13;;
43216;SDS011;60511;42.686;23.300;2023-04-01T17:19:38;2.45;;;2.10;;
43216;SDS011;60511;42.686;23.300;2023-04-01T17:21:52;1.85;;;1.48;;
43216;SDS011;60511;42.686;23.300;2023-04-01T17:26:46;2.60;;;1.80;;
43216;SDS011;60511;42.686;23.300;2023-04-01T17:28:57;2.00;;;1.65;;
43216;SDS011;60511;42.686;23.300;2023-04-01T17:33:40;1.60;;;1.30;;
43216;SDS011;60511;42.686;23.300;2023-04-01T17:41:32;1.92;;;1.58;;
43216;SDS011;60511;42.686;23.300;2023-04-01T17:43:28;1.83;;;1.65;;
43216;SDS011;60511;42.686;23.300;2023-04-01T17:50:20;1.58;;;1.48;;
43216;SDS011;60511;42.686;23.300;2023-04-01T18:02:23;1.63;;;1.42;;
43216;SDS011;60511;42.686;23.300;2023-04-01T18:11:04;1.53;;;1.30;;
43216;SDS011;60511;42.686;23.300;2023-04-01T18:13:56;2.70;;;1.65;;
43216;SDS011;60511;42.686;23.300;2023-04-01T18:23:53;1.55;;;1.40;;
43216;SDS011;60511;42.686;23.300;2023-04-01T18:26:02;1.92;;;1.73;;
43216;SDS011;60511;42.686;23.300;2023-04-01T18:28:22;1.80;;;1.50;;
43216;SDS011;60511;42.686;23.300;2023-04-01T18:30:32;1.90;;;1.77;;
43216;SDS011;60511;42.686;23.300;2023-04-01T18:37:23;1.98;;;1.70;;
43216;SDS011;60511;42.686;23.300;2023-04-01T18:39:22;1.65;;;1.55;;
43216;SDS011;60511;42.686;23.300;2023-04-01T18:41:34;2.30;;;1.70;;
43216;SDS011;60511;42.686;23.300;2023-04-01T18:46:01;1.77;;;1.67;;
43216;SDS011;60511;42.686;23.300;2023-04-01T18:48:15;2.17;;;1.60;;
43216;SDS011;60511;42.686;23.300;2023-04-01T18:52:39;2.05;;;1.70;;
43216;SDS011;60511;42.686;23.300;2023-04-01T18:54:49;1.70;;;1.60;;
43216;SDS011;60511;42.686;23.300;2023-04-01T18:57:13;1.58;;;1.48;;
43216;SDS011;60511;42.686;23.300;2023-04-01T19:06:44;2.05;;;1.58;;
43216;SDS011;60511;42.686;23.300;2023-04-01T19:08:52;2.10;;;1.90;;
43216;SDS011;60511;42.686;23.300;2023-04-01T19:15:37;2.78;;;1.75;;
43216;SDS011;60511;42.686;23.300;2023-04-01T19:19:56;1.83;;;1.20;;
43216;SDS011;60511;42.686;23.300;2023-04-01T19:38:31;1.40;;;1.20;;
43216;SDS011;60511;42.686;23.300;2023-04-01T19:40:52;1.83;;;1.52;;
43216;SDS011;60511;42.686;23.300;2023-04-01T19:47:18;2.00;;;1.30;;
43216;SDS011;60511;42.686;23.300;2023-04-01T19:52:40;1.83;;;1.73;;
43216;SDS011;60511;42.686;23.300;2023-04-01T19:57:28;2.90;;;1.65;;
43216;SDS011;60511;42.686;23.300;2023-04-01T19:59:48;1.55;;;1.42;;
43216;SDS011;60511;42.686;23.300;2023-04-01T20:02:00;1.75;;;1.52;;
43216;SDS011;60511;42.686;23.300;2023-04-01T20:06:45;1.95;;;1.55;;
43216;SDS011;60511;42.686;23.300;2023-04-01T20:16:02;1.27;;;1.17;;
43216;SDS011;60511;42.686;23.300;2023-04-01T20:18:25;1.75;;;1.60;;
43216;SDS011;60511;42.686;23.300;2023-04-01T20:20:34;1.55;;;1.40;;
43216;SDS011;60511;42.686;23.300;2023-04-01T20:24:45;1.38;;;1.27;;
43216;SDS011;60511;42.686;23.300;2023-04-01T20:26:50;1.30;;;1.20;;
43216;SDS011;60511;42.686;23.300;2023-04-01T20:40:31;1.50;;;1.40;;
43216;SDS011;60511;42.686;23.300;2023-04-01T20:44:52;1.95;;;1.20;;
43216;SDS011;60511;42.686;23.300;2023-04-01T20:49:54;1.73;;;1.33;;
43216;SDS011;60511;42.686;23.300;2023-04-01T20:52:24;1.65;;;1.20;;
43216;SDS011;60511;42.686;23.300;2023-04-01T20:57:00;1.35;;;1.13;;
43216;SDS011;60511;42.686;23.300;2023-04-01T21:11:18;1.30;;;0.90;;
43216;SDS011;60511;42.686;23.300;2023-04-01T21:13:31;1.40;;;1.23;;
43216;SDS011;60511;42.686;23.300;2023-04-01T21:17:54;1.20;;;1.10;;
43216;SDS011;60511;42.686;23.300;2023-04-01T21:20:07;1.35;;;1.00;;
43216;SDS011;60511;42.686;23.300;2023-04-01T21:29:28;1.73;;;1.17;;
43216;SDS011;60511;42.686;23.300;2023-04-01T21:32:06;0.93;;;0.82;;
43216;SDS011;60511;42.686;23.300;2023-04-01T21:54:08;1.35;;;1.15;;
43216;SDS011;60511;42.686;23.300;2023-04-01T22:10:48;1.08;;;1.00;;
43216;SDS011;60511;42.686;23.300;2023-04-01T22:17:30;2.90;;;1.10;;
43216;SDS011;60511;42.686;23.300;2023-04-01T22:19:56;1.20;;;0.93;;
43216;SDS011;60511;42.686;23.300;2023-04-01T22:26:41;1.15;;;0.90;;
43216;SDS011;60511;42.686;23.300;2023-04-01T22:28:57;1.27;;;1.02;;
43216;SDS011;60511;42.686;23.300;2023-04-01T22:31:13;1.25;;;1.00;;
43216;SDS011;60511;42.686;23.300;2023-04-01T22:33:41;1.20;;;0.95;;
43216;SDS011;60511;42.686;23.300;2023-04-01T22:35:53;1.70;;;1.30;;
43216;SDS011;60511;42.686;23.300;2023-04-01T22:46:56;1.30;;;1.08;;
43216;SDS011;60511;42.686;23.300;2023-04-01T22:51:55;1.70;;;0.90;;
43216;SDS011;60511;42.686;23.300;2023-04-01T22:54:15;1.13;;;0.88;;
43216;SDS011;60511;42.686;23.300;2023-04-01T22:57:07;1.10;;;1.00;;
43216;SDS011;60511;42.686;23.300;2023-04-01T23:02:06;1.50;;;1.15;;
43216;SDS011;60511;42.686;23.300;2023-04-01T23:04:15;1.17;;;1.08;;
43216;SDS011;60511;42.686;23.300;2023-04-01T23:06:39;1.20;;;0.77;;
43216;SDS011;60511;42.686;23.300;2023-04-01T23:10:54;0.80;;;0.80;;
43216;SDS011;60511;42.686;23.300;2023-04-01T23:12:59;1.20;;;0.90;;
43216;SDS011;60511;42.686;23.300;2023-04-01T23:15:02;0.98;;;0.82;;
43216;SDS011;60511;42.686;23.300;2023-04-01T23:19:09;1.65;;;1.30;;
43216;SDS011;60511;42.686;23.300;2023-04-01T23:21:23;1.25;;;1.15;;